Time;durP1;ratioP1;P1;durP2;ratioP2;P2;SDS_P1;SDS_P2;PMS_P1;PMS_P2;Temp;Humidity;BMP_temperature;BMP_pressure;BME280_temperature;BME280_humidity;BME280_pressure;Samples;Min_cycle;Max_cycle;Signal;HPM_P1;HPM_P2
2023/05/15 00:00:44;;;;;;;7.90;7.30;;;;;;;-128.00;-1.00;-1.00;105753;1251;1004587;-73
2023/05/15 00:03:28;;;;;;;6.30;5.80;;;;;;;-128.00;-1.00;-1.00;105742;1251;1058932;-73
2023/05/15 00:05:55;;;;;;;6.20;5.60;;;;;;;-128.00;-1.00;-1.00;105706;1251;1003999;-74
2023/05/15 00:08:22;;;;;;;5.40;4.90;;;;;;;-128.00;-1.00;-1.00;105724;1251;1004376;-73
2023/05/15 00:10:49;;;;;;;5.70;5.20;;;;;;;-128.00;-1.00;-1.00;105714;1251;1004890;-73
2023/05/15 00:13:19;;;;;;;5.40;4.90;;;;;;;-128.00;-1.00;-1.00;105697;1251;1004676;-73
2023/05/15 00:15:45;;;;;;;5.20;4.60;;;;;;;-128.00;-1.00;-1.00;105720;1251;1058855;-73
2023/05/15 00:18:12;;;;;;;6.60;4.10;;;;;;;-128.00;-1.00;-1.00;105738;1251;1003804;-73
2023/05/15 00:20:38;;;;;;;5.10;4.60;;;;;;;-128.00;-1.00;-1.00;105705;1251;1004132;-73
2023/05/15 00:23:05;;;;;;;5.30;4.80;;;;;;;-128.00;-1.00;-1.00;105537;1251;1004087;-73
2023/05/15 00:25:31;;;;;;;6.60;5.60;;;;;;;-128.00;-1.00;-1.00;105747;1251;1003774;-74
2023/05/15 00:27:58;;;;;;;5.70;5.20;;;;;;;-128.00;-1.00;-1.00;105710;1251;1003515;-73
2023/05/15 00:30:24;;;;;;;7.10;6.40;;;;;;;-128.00;-1.00;-1.00;105706;1251;1004670;-73
2023/05/15 00:32:51;;;;;;;5.40;4.90;;;;;;;-128.00;-1.00;-1.00;105532;1251;1005438;-73
2023/05/15 00:35:17;;;;;;;6.80;5.40;;;;;;;-128.00;-1.00;-1.00;105731;1251;1004845;-73
2023/05/15 00:37:44;;;;;;;5.60;5.10;;;;;;;-128.00;-1.00;-1.00;105503;1251;1003608;-73
2023/05/15 00:40:14;;;;;;;6.10;5.50;;;;;;;-128.00;-1.00;-1.00;105720;1251;1003952;-74
2023/05/15 00:42:41;;;;;;;5.90;5.30;;;;;;;-128.00;-1.00;-1.00;105748;1251;1046118;-73
2023/05/15 00:45:10;;;;;;;6.40;5.90;;;;;;;-128.00;-1.00;-1.00;105757;1251;1004750;-73
2023/05/15 00:47:39;;;;;;;6.30;5.80;;;;;;;-128.00;-1.00;-1.00;105705;1251;1060834;-73
2023/05/15 00:50:07;;;;;;;6.70;5.90;;;;;;;-128.00;-1.00;-1.00;105751;1251;1057043;-73
2023/05/15 00:52:35;;;;;;;7.20;6.40;;;;;;;-128.00;-1.00;-1.00;105755;1251;1003825;-73
2023/05/15 00:55:02;;;;;;;6.60;6.00;;;;;;;-128.00;-1.00;-1.00;105768;1252;1005152;-73
2023/05/15 00:57:30;;;;;;;7.10;6.10;;;;;;;-128.00;-1.00;-1.00;105742;1251;1003962;-73
2023/05/15 00:59:59;;;;;;;7.20;5.80;;;;;;;-128.00;-1.00;-1.00;105754;1252;1004574;-73
2023/05/15 01:02:25;;;;;;;7.20;6.30;;;;;;;-128.00;-1.00;-1.00;105774;1251;1056126;-73
2023/05/15 01:04:52;;;;;;;7.00;6.30;;;;;;;-128.00;-1.00;-1.00;105721;1252;1004871;-73
2023/05/15 01:07:19;;;;;;;7.00;6.40;;;;;;;-128.00;-1.00;-1.00;105759;1251;1004872;-73
2023/05/15 01:09:46;;;;;;;8.20;6.90;;;;;;;-128.00;-1.00;-1.00;105769;1255;1003769;-73
2023/05/15 01:12:15;;;;;;;6.80;6.30;;;;;;;-128.00;-1.00;-1.00;105765;1251;1004036;-74
2023/05/15 01:14:42;;;;;;;6.80;6.10;;;;;;;-128.00;-1.00;-1.00;105566;1251;1056790;-74
2023/05/15 01:17:08;;;;;;;6.10;5.60;;;;;;;-128.00;-1.00;-1.00;105737;1251;1003841;-74
2023/05/15 01:19:35;;;;;;;6.30;5.70;;;;;;;-128.00;-1.00;-1.00;105744;1251;1003874;-73
2023/05/15 01:22:01;;;;;;;6.10;5.60;;;;;;;-128.00;-1.00;-1.00;105790;1251;1004068;-73
2023/05/15 01:24:28;;;;;;;6.10;5.70;;;;;;;-128.00;-1.00;-1.00;105696;1252;1003911;-73
2023/05/15 01:27:15;;;;;;;6.60;5.60;;;;;;;-128.00;-1.00;-1.00;105816;1251;1004800;-74
2023/05/15 01:29:48;;;;;;;7.10;6.50;;;;;;;-128.00;-1.00;-1.00;105685;1251;1060102;-73
2023/05/15 01:32:20;;;;;;;6.80;6.10;;;;;;;-128.00;-1.00;-1.00;105775;1251;1045632;-73
2023/05/15 01:35:02;;;;;;;7.10;6.50;;;;;;;-128.00;-1.00;-1.00;105739;1251;1046461;-73
2023/05/15 01:37:33;;;;;;;6.60;6.00;;;;;;;-128.00;-1.00;-1.00;105761;1251;1061893;-73
2023/05/15 01:40:03;;;;;;;6.40;5.80;;;;;;;-128.00;-1.00;-1.00;105752;1251;1055851;-74
2023/05/15 01:42:32;;;;;;;;;;;;;;;-128.00;-1.00;-1.00;105744;1251;1058588;-73
2023/05/15 01:45:03;;;;;;;6.30;5.70;;;;;;;-128.00;-1.00;-1.00;105542;1251;1045301;-73
2023/05/15 01:47:36;;;;;;;7.00;6.30;;;;;;;-128.00;-1.00;-1.00;105740;1251;1046096;-74
2023/05/15 01:50:05;;;;;;;7.10;6.50;;;;;;;-128.00;-1.00;-1.00;105737;1251;1062101;-74
2023/05/15 01:52:34;;;;;;;7.30;6.60;;;;;;;-128.00;-1.00;-1.00;105672;1251;1055798;-74
2023/05/15 01:55:03;;;;;;;7.10;6.60;;;;;;;-128.00;-1.00;-1.00;105724;1251;1003932;-74
2023/05/15 01:57:30;;;;;;;7.30;6.60;;;;;;;-128.00;-1.00;-1.00;105665;1251;1046720;-74
2023/05/15 01:59:58;;;;;;;8.20;7.10;;;;;;;-128.00;-1.00;-1.00;105748;1251;1004546;-74
2023/05/15 02:02:26;;;;;;;7.70;7.10;;;;;;;-128.00;-1.00;-1.00;105770;1251;1005137;-74
2023/05/15 02:04:54;;;;;;;7.20;6.70;;;;;;;-128.00;-1.00;-1.00;105724;1253;1055030;-74
2023/05/15 02:07:22;;;;;;;7.50;6.80;;;;;;;-128.00;-1.00;-1.00;105693;1251;1003685;-74
2023/05/15 02:09:51;;;;;;;7.50;6.90;;;;;;;-128.00;-1.00;-1.00;105725;1251;1003926;-74
2023/05/15 02:12:19;;;;;;;8.50;7.40;;;;;;;-128.00;-1.00;-1.00;105787;1251;1047132;-74
2023/05/15 02:14:49;;;;;;;8.00;7.30;;;;;;;-128.00;-1.00;-1.00;105736;1251;1005399;-74
2023/05/15 02:17:16;;;;;;;9.30;8.50;;;;;;;-128.00;-1.00;-1.00;105792;1251;1056428;-74
2023/05/15 02:19:42;;;;;;;9.20;8.30;;;;;;;-128.00;-1.00;-1.00;105793;1252;1004434;-74
2023/05/15 02:22:09;;;;;;;10.50;9.60;;;;;;;-128.00;-1.00;-1.00;105711;1251;1004414;-72
2023/05/15 02:24:36;;;;;;;9.80;8.40;;;;;;;-128.00;-1.00;-1.00;105783;1251;1004106;-72
2023/05/15 02:27:14;;;;;;;9.60;8.10;;;;;;;-128.00;-1.00;-1.00;105735;1253;1003321;-72
2023/05/15 02:30:06;;;;;;;8.70;7.90;;;;;;;-128.00;-1.00;-1.00;105703;1251;1056390;-72
2023/05/15 02:32:50;;;;;;;8.80;8.00;;;;;;;-128.00;-1.00;-1.00;105728;1251;1060807;-72
2023/05/15 02:35:20;;;;;;;8.70;7.80;;;;;;;-128.00;-1.00;-1.00;105724;1251;1046728;-73
2023/05/15 02:37:50;;;;;;;11.10;10.10;;;;;;;-128.00;-1.00;-1.00;105747;1251;1046987;-72
2023/05/15 02:40:19;;;;;;;10.10;9.10;;;;;;;-128.00;-1.00;-1.00;105758;1251;1061843;-72
2023/05/15 02:42:46;;;;;;;9.50;8.60;;;;;;;-128.00;-1.00;-1.00;105713;1253;1056805;-74
2023/05/15 02:45:13;;;;;;;10.20;9.20;;;;;;;-128.00;-1.00;-1.00;105715;1251;1003270;-74
2023/05/15 02:47:41;;;;;;;9.10;8.30;;;;;;;-128.00;-1.00;-1.00;105517;1251;1003873;-74
2023/05/15 02:50:09;;;;;;;9.60;8.60;;;;;;;-128.00;-1.00;-1.00;105760;1251;1004134;-72
2023/05/15 02:52:35;;;;;;;9.50;8.60;;;;;;;-128.00;-1.00;-1.00;105697;1252;1005005;-72
2023/05/15 02:55:02;;;;;;;8.70;7.80;;;;;;;-128.00;-1.00;-1.00;105666;1251;1003323;-72
2023/05/15 02:57:29;;;;;;;11.50;10.40;;;;;;;-128.00;-1.00;-1.00;105725;1251;1005130;-75
2023/05/15 02:59:56;;;;;;;10.50;9.60;;;;;;;-128.00;-1.00;-1.00;105719;1253;1004602;-73
2023/05/15 03:02:22;;;;;;;9.20;8.20;;;;;;;-128.00;-1.00;-1.00;105765;1254;1005269;-73
2023/05/15 03:04:49;;;;;;;10.60;9.70;;;;;;;-128.00;-1.00;-1.00;105755;1251;1003905;-73
2023/05/15 03:07:15;;;;;;;9.60;8.90;;;;;;;-128.00;-1.00;-1.00;105741;1251;1004321;-73
2023/05/15 03:09:42;;;;;;;9.60;8.80;;;;;;;-128.00;-1.00;-1.00;105718;1251;1004268;-73
2023/05/15 03:12:09;;;;;;;9.50;8.70;;;;;;;-128.00;-1.00;-1.00;105725;1251;1004534;-73
2023/05/15 03:14:36;;;;;;;9.00;8.20;;;;;;;-128.00;-1.00;-1.00;105710;1251;1004521;-74
2023/05/15 03:17:02;;;;;;;10.10;9.20;;;;;;;-128.00;-1.00;-1.00;105696;1253;1004523;-73
2023/05/15 03:19:30;;;;;;;10.60;9.70;;;;;;;-128.00;-1.00;-1.00;105473;1251;1004221;-73
2023/05/15 03:21:56;;;;;;;11.60;10.60;;;;;;;-128.00;-1.00;-1.00;105737;1251;1003678;-73
2023/05/15 03:24:23;;;;;;;11.20;10.30;;;;;;;-128.00;-1.00;-1.00;105699;1251;1003487;-73
2023/05/15 03:26:49;;;;;;;9.50;8.70;;;;;;;-128.00;-1.00;-1.00;105742;1251;1004289;-76
2023/05/15 03:29:16;;;;;;;11.00;10.00;;;;;;;-128.00;-1.00;-1.00;105705;1251;1004493;-74
2023/05/15 03:31:42;;;;;;;10.30;9.30;;;;;;;-128.00;-1.00;-1.00;105736;1253;1004164;-74
2023/05/15 03:34:08;;;;;;;11.10;10.10;;;;;;;-128.00;-1.00;-1.00;105727;1251;1003892;-74
2023/05/15 03:36:35;;;;;;;12.20;11.00;;;;;;;-128.00;-1.00;-1.00;105673;1251;1004853;-73
2023/05/15 03:39:01;;;;;;;10.80;9.80;;;;;;;-128.00;-1.00;-1.00;105657;1255;1003550;-74
2023/05/15 03:41:28;;;;;;;10.80;9.80;;;;;;;-128.00;-1.00;-1.00;105752;1251;1004199;-73
2023/05/15 03:43:54;;;;;;;11.20;10.20;;;;;;;-128.00;-1.00;-1.00;105742;1251;1005034;-73
2023/05/15 03:46:21;;;;;;;11.80;10.70;;;;;;;-128.00;-1.00;-1.00;105454;1251;1004339;-73
2023/05/15 03:48:47;;;;;;;12.00;10.90;;;;;;;-128.00;-1.00;-1.00;105713;1251;1003698;-73
2023/05/15 03:51:14;;;;;;;10.70;9.80;;;;;;;-128.00;-1.00;-1.00;105760;1251;1004186;-73
2023/05/15 03:53:41;;;;;;;11.70;10.60;;;;;;;-128.00;-1.00;-1.00;105710;1251;1004265;-72
2023/05/15 03:56:07;;;;;;;11.20;10.10;;;;;;;-128.00;-1.00;-1.00;105786;1251;1003569;-72
2023/05/15 03:58:33;;;;;;;12.40;10.40;;;;;;;-128.00;-1.00;-1.00;105709;1251;1004341;-73
2023/05/15 04:01:00;;;;;;;11.60;10.40;;;;;;;-128.00;-1.00;-1.00;105720;1251;1004080;-73
2023/05/15 04:03:27;;;;;;;12.20;11.20;;;;;;;-128.00;-1.00;-1.00;105697;1251;1003898;-73
2023/05/15 04:05:53;;;;;;;10.50;9.60;;;;;;;-128.00;-1.00;-1.00;105720;1255;1003920;-73
2023/05/15 04:08:20;;;;;;;12.40;11.30;;;;;;;-128.00;-1.00;-1.00;105724;1251;1004779;-73
2023/05/15 04:10:46;;;;;;;11.30;10.30;;;;;;;-128.00;-1.00;-1.00;105726;1251;1005012;-73
2023/05/15 04:13:13;;;;;;;11.40;10.40;;;;;;;-128.00;-1.00;-1.00;105482;1253;1003979;-73
2023/05/15 04:15:39;;;;;;;11.40;10.40;;;;;;;-128.00;-1.00;-1.00;105768;1253;1004222;-73
2023/05/15 04:18:06;;;;;;;10.80;9.80;;;;;;;-128.00;-1.00;-1.00;105502;1252;1003557;-73
2023/05/15 04:20:33;;;;;;;10.00;9.10;;;;;;;-128.00;-1.00;-1.00;105757;1252;1003679;-73
2023/05/15 04:22:59;;;;;;;10.30;9.50;;;;;;;-128.00;-1.00;-1.00;105774;1252;1005916;-73
2023/05/15 04:25:26;;;;;;;10.70;9.70;;;;;;;-128.00;-1.00;-1.00;105461;1253;1004710;-73
2023/05/15 04:27:54;;;;;;;9.50;8.70;;;;;;;-128.00;-1.00;-1.00;105775;1253;1004250;-73
2023/05/15 04:30:21;;;;;;;9.80;8.90;;;;;;;-128.00;-1.00;-1.00;105725;1252;1004604;-73
2023/05/15 04:32:48;;;;;;;10.10;9.30;;;;;;;-128.00;-1.00;-1.00;105771;1253;1003857;-73
2023/05/15 04:35:14;;;;;;;10.30;9.30;;;;;;;-128.00;-1.00;-1.00;105700;1253;1004758;-73
2023/05/15 04:37:41;;;;;;;11.50;10.20;;;;;;;-128.00;-1.00;-1.00;105753;1253;1004220;-73
2023/05/15 04:40:09;;;;;;;11.30;10.30;;;;;;;-128.00;-1.00;-1.00;105724;1254;1003349;-73
2023/05/15 04:42:36;;;;;;;12.00;10.90;;;;;;;-128.00;-1.00;-1.00;105699;1252;1004658;-73
2023/05/15 04:45:03;;;;;;;15.20;13.90;;;;;;;-128.00;-1.00;-1.00;105742;1253;1004004;-73
2023/05/15 04:47:30;;;;;;;10.20;9.30;;;;;;;-128.00;-1.00;-1.00;105712;1253;1004382;-73
2023/05/15 04:49:56;;;;;;;10.80;9.90;;;;;;;-128.00;-1.00;-1.00;105722;1253;1005169;-73
2023/05/15 04:52:23;;;;;;;11.00;10.00;;;;;;;-128.00;-1.00;-1.00;105744;1252;1005176;-73
2023/05/15 04:54:51;;;;;;;12.30;11.20;;;;;;;-128.00;-1.00;-1.00;105799;1253;1004726;-73
2023/05/15 04:57:18;;;;;;;11.00;10.00;;;;;;;-128.00;-1.00;-1.00;105779;1252;1056478;-73
2023/05/15 04:59:44;;;;;;;10.80;9.80;;;;;;;-128.00;-1.00;-1.00;105748;1253;1004291;-73
2023/05/15 05:02:11;;;;;;;10.20;9.40;;;;;;;-128.00;-1.00;-1.00;105460;1253;1003293;-73
2023/05/15 05:04:37;;;;;;;8.30;7.60;;;;;;;-128.00;-1.00;-1.00;105693;1254;1004487;-74
2023/05/15 05:07:04;;;;;;;7.80;7.20;;;;;;;-128.00;-1.00;-1.00;105730;1252;1004520;-73
2023/05/15 05:09:31;;;;;;;8.20;7.50;;;;;;;-128.00;-1.00;-1.00;105750;1253;1004432;-74
2023/05/15 05:11:59;;;;;;;10.00;9.10;;;;;;;-128.00;-1.00;-1.00;105722;1254;1004480;-74
2023/05/15 05:14:25;;;;;;;10.50;9.60;;;;;;;-128.00;-1.00;-1.00;105644;1253;1004678;-74
2023/05/15 05:16:52;;;;;;;9.20;8.50;;;;;;;-128.00;-1.00;-1.00;105706;1253;1004598;-74
2023/05/15 05:19:19;;;;;;;8.40;7.60;;;;;;;-128.00;-1.00;-1.00;105643;1253;1004550;-74
2023/05/15 05:21:45;;;;;;;8.60;7.80;;;;;;;-128.00;-1.00;-1.00;105696;1254;1004603;-73
2023/05/15 05:24:12;;;;;;;10.20;9.30;;;;;;;-128.00;-1.00;-1.00;105712;1253;1003837;-74
2023/05/15 05:26:38;;;;;;;10.10;9.20;;;;;;;-128.00;-1.00;-1.00;105725;1252;1003968;-74
2023/05/15 05:29:04;;;;;;;10.00;9.00;;;;;;;-128.00;-1.00;-1.00;105704;1256;1003594;-74
2023/05/15 05:31:31;;;;;;;9.80;8.90;;;;;;;-128.00;-1.00;-1.00;105732;1254;1004382;-73
2023/05/15 05:33:57;;;;;;;10.50;9.60;;;;;;;-128.00;-1.00;-1.00;105722;1255;1004596;-73
2023/05/15 05:36:24;;;;;;;9.00;8.20;;;;;;;-128.00;-1.00;-1.00;105698;1254;1005546;-74
2023/05/15 05:38:50;;;;;;;9.30;8.50;;;;;;;-128.00;-1.00;-1.00;105726;1253;1004311;-74
2023/05/15 05:41:17;;;;;;;7.60;6.90;;;;;;;-128.00;-1.00;-1.00;105487;1252;1004324;-73
2023/05/15 05:43:43;;;;;;;12.80;11.80;;;;;;;-128.00;-1.00;-1.00;105702;1253;1004580;-73
2023/05/15 05:46:10;;;;;;;8.50;7.80;;;;;;;-128.00;-1.00;-1.00;105750;1253;1004459;-74
2023/05/15 05:48:36;;;;;;;10.70;9.80;;;;;;;-128.00;-1.00;-1.00;105719;1251;1005027;-74
2023/05/15 05:51:03;;;;;;;9.80;9.00;;;;;;;-128.00;-1.00;-1.00;105666;1253;1003847;-73
2023/05/15 05:53:29;;;;;;;8.30;7.60;;;;;;;-128.00;-1.00;-1.00;105730;1254;1004113;-74
2023/05/15 05:55:56;;;;;;;10.30;9.40;;;;;;;-128.00;-1.00;-1.00;105488;1253;1003641;-74
2023/05/15 05:58:22;;;;;;;8.50;7.80;;;;;;;-128.00;-1.00;-1.00;105711;1252;1004541;-74
2023/05/15 06:00:49;;;;;;;7.10;6.60;;;;;;;-128.00;-1.00;-1.00;105738;1253;1004197;-73
2023/05/15 06:03:15;;;;;;;7.40;6.80;;;;;;;-128.00;-1.00;-1.00;105653;1254;1004576;-74
2023/05/15 06:05:42;;;;;;;7.10;6.60;;;;;;;-128.00;-1.00;-1.00;105669;1252;1003948;-73
2023/05/15 06:08:08;;;;;;;7.90;7.20;;;;;;;-128.00;-1.00;-1.00;105757;1252;1003441;-73
2023/05/15 06:10:35;;;;;;;7.50;6.90;;;;;;;-128.00;-1.00;-1.00;105720;1253;1004583;-73
2023/05/15 06:13:02;;;;;;;9.30;8.40;;;;;;;-128.00;-1.00;-1.00;105735;1253;1004803;-73
2023/05/15 06:15:28;;;;;;;8.20;7.40;;;;;;;-128.00;-1.00;-1.00;105724;1251;1003669;-73
2023/05/15 06:17:55;;;;;;;8.00;7.40;;;;;;;-128.00;-1.00;-1.00;105742;1251;1004448;-73
2023/05/15 06:20:22;;;;;;;9.60;8.70;;;;;;;-128.00;-1.00;-1.00;105748;1251;1003506;-73
2023/05/15 06:22:48;;;;;;;8.20;7.40;;;;;;;-128.00;-1.00;-1.00;105715;1251;1004500;-73
2023/05/15 06:25:15;;;;;;;7.90;7.20;;;;;;;-128.00;-1.00;-1.00;105502;1251;1004961;-73
2023/05/15 06:27:41;;;;;;;8.50;7.90;;;;;;;-128.00;-1.00;-1.00;105702;1251;1005504;-73
2023/05/15 06:30:09;;;;;;;7.90;7.30;;;;;;;-128.00;-1.00;-1.00;105557;1251;1003978;-73
2023/05/15 06:32:35;;;;;;;9.00;8.20;;;;;;;-128.00;-1.00;-1.00;105533;1251;1004956;-73
2023/05/15 06:35:02;;;;;;;7.90;7.20;;;;;;;-128.00;-1.00;-1.00;105731;1251;1003684;-73
2023/05/15 06:37:29;;;;;;;9.30;8.50;;;;;;;-128.00;-1.00;-1.00;105709;1251;1003942;-73
2023/05/15 06:39:55;;;;;;;7.30;6.70;;;;;;;-128.00;-1.00;-1.00;105549;1251;1004772;-73
2023/05/15 06:42:22;;;;;;;7.90;7.30;;;;;;;-128.00;-1.00;-1.00;105726;1251;1003827;-73
2023/05/15 06:44:49;;;;;;;8.00;7.30;;;;;;;-128.00;-1.00;-1.00;105729;1251;1004308;-74
2023/05/15 06:47:15;;;;;;;8.60;8.00;;;;;;;-128.00;-1.00;-1.00;105734;1251;1003921;-74
2023/05/15 06:49:42;;;;;;;11.20;10.30;;;;;;;-128.00;-1.00;-1.00;105676;1251;1004015;-73
2023/05/15 06:52:08;;;;;;;8.60;7.90;;;;;;;-128.00;-1.00;-1.00;105709;1251;1004239;-74
2023/05/15 06:54:35;;;;;;;10.10;9.30;;;;;;;-128.00;-1.00;-1.00;105734;1251;1005195;-73
2023/05/15 06:57:01;;;;;;;9.30;8.60;;;;;;;-128.00;-1.00;-1.00;105727;1251;1004136;-73
2023/05/15 06:59:28;;;;;;;7.70;7.00;;;;;;;-128.00;-1.00;-1.00;105476;1251;1004088;-73
2023/05/15 07:01:54;;;;;;;7.90;7.20;;;;;;;-128.00;-1.00;-1.00;105705;1251;1004086;-73
2023/05/15 07:04:21;;;;;;;7.20;6.70;;;;;;;-128.00;-1.00;-1.00;105691;1251;1003649;-73
2023/05/15 07:06:47;;;;;;;7.60;6.90;;;;;;;-128.00;-1.00;-1.00;105696;1251;1003539;-73
2023/05/15 07:09:14;;;;;;;8.70;8.10;;;;;;;-128.00;-1.00;-1.00;105707;1251;1003321;-73
2023/05/15 07:11:41;;;;;;;8.60;8.00;;;;;;;-128.00;-1.00;-1.00;105675;1251;1004686;-73
2023/05/15 07:14:07;;;;;;;7.70;7.20;;;;;;;-128.00;-1.00;-1.00;105717;1251;1004136;-73
2023/05/15 07:16:34;;;;;;;7.30;6.70;;;;;;;-128.00;-1.00;-1.00;105687;1251;1003919;-73
2023/05/15 07:19:00;;;;;;;7.70;6.50;;;;;;;-128.00;-1.00;-1.00;105750;1251;1004504;-73
2023/05/15 07:21:27;;;;;;;6.80;6.30;;;;;;;-128.00;-1.00;-1.00;105503;1251;1005688;-73
2023/05/15 07:23:53;;;;;;;6.90;6.40;;;;;;;-128.00;-1.00;-1.00;105701;1251;1005920;-73
2023/05/15 07:26:20;;;;;;;6.20;5.70;;;;;;;-128.00;-1.00;-1.00;105524;1251;1004430;-73
2023/05/15 07:28:46;;;;;;;6.50;5.90;;;;;;;-128.00;-1.00;-1.00;105674;1251;1004411;-73
2023/05/15 07:31:13;;;;;;;6.10;5.20;;;;;;;-128.00;-1.00;-1.00;105750;1251;1004499;-73
2023/05/15 07:33:39;;;;;;;5.70;5.20;;;;;;;-128.00;-1.00;-1.00;105728;1251;1004170;-74
2023/05/15 07:36:06;;;;;;;5.10;4.80;;;;;;;-128.00;-1.00;-1.00;105548;1251;1004100;-73
2023/05/15 07:38:32;;;;;;;5.10;4.80;;;;;;;-128.00;-1.00;-1.00;105685;1251;1004272;-73
2023/05/15 07:40:59;;;;;;;5.80;5.30;;;;;;;-128.00;-1.00;-1.00;105696;1251;1003646;-73
2023/05/15 07:43:26;;;;;;;7.90;5.20;;;;;;;-128.00;-1.00;-1.00;105686;1251;1004579;-73
2023/05/15 07:45:52;;;;;;;5.10;4.80;;;;;;;-128.00;-1.00;-1.00;105577;1251;1004982;-73
2023/05/15 07:48:19;;;;;;;5.40;4.90;;;;;;;-128.00;-1.00;-1.00;105526;1251;1003358;-73
2023/05/15 07:50:46;;;;;;;5.20;4.80;;;;;;;-128.00;-1.00;-1.00;105510;1251;1004267;-73
2023/05/15 07:53:15;;;;;;;5.00;4.60;;;;;;;-128.00;-1.00;-1.00;105669;1251;1003371;-74
2023/05/15 07:55:43;;;;;;;4.70;4.40;;;;;;;-128.00;-1.00;-1.00;105711;1251;1046028;-73
2023/05/15 07:58:09;;;;;;;5.30;4.90;;;;;;;-128.00;-1.00;-1.00;105768;1251;1003732;-73
2023/05/15 08:00:37;;;;;;;5.80;5.40;;;;;;;-128.00;-1.00;-1.00;105684;1251;1004692;-73
2023/05/15 08:03:03;;;;;;;5.10;4.70;;;;;;;-128.00;-1.00;-1.00;105754;1251;1004000;-73
2023/05/15 08:05:30;;;;;;;5.60;5.20;;;;;;;-128.00;-1.00;-1.00;105702;1251;1004545;-73
2023/05/15 08:07:56;;;;;;;5.70;5.30;;;;;;;-128.00;-1.00;-1.00;105699;1251;1004264;-73
2023/05/15 08:10:23;;;;;;;5.10;4.70;;;;;;;-128.00;-1.00;-1.00;105697;1251;1004718;-74
2023/05/15 08:12:49;;;;;;;4.90;4.60;;;;;;;-128.00;-1.00;-1.00;105729;1251;1004961;-73
2023/05/15 08:15:16;;;;;;;5.40;5.00;;;;;;;-128.00;-1.00;-1.00;105516;1251;1003901;-74
2023/05/15 08:17:43;;;;;;;5.50;5.10;;;;;;;-128.00;-1.00;-1.00;105687;1251;1003846;-74
2023/05/15 08:20:10;;;;;;;4.90;4.50;;;;;;;-128.00;-1.00;-1.00;105686;1251;1003401;-73
2023/05/15 08:22:36;;;;;;;5.70;5.30;;;;;;;-128.00;-1.00;-1.00;105577;1251;1004324;-73
2023/05/15 08:25:05;;;;;;;5.30;4.90;;;;;;;-128.00;-1.00;-1.00;105723;1251;1003880;-73
2023/05/15 08:27:31;;;;;;;6.20;5.70;;;;;;;-128.00;-1.00;-1.00;105680;1251;1004195;-73
2023/05/15 08:29:58;;;;;;;5.70;5.30;;;;;;;-128.00;-1.00;-1.00;105687;1251;1004244;-73
2023/05/15 08:32:26;;;;;;;5.90;5.40;;;;;;;-128.00;-1.00;-1.00;105731;1251;1003282;-73
2023/05/15 08:34:52;;;;;;;6.40;5.90;;;;;;;-128.00;-1.00;-1.00;105707;1251;1004132;-73
2023/05/15 08:37:19;;;;;;;4.90;4.60;;;;;;;-128.00;-1.00;-1.00;105730;1251;1004202;-73
2023/05/15 08:39:45;;;;;;;4.90;4.60;;;;;;;-128.00;-1.00;-1.00;105716;1251;1004027;-73
2023/05/15 08:42:27;;;;;;;4.90;4.60;;;;;;;-128.00;-1.00;-1.00;105735;1251;1004838;-73
2023/05/15 08:44:54;;;;;;;4.80;4.30;;;;;;;-128.00;-1.00;-1.00;105749;1251;1047264;-73
2023/05/15 08:47:21;;;;;;;5.20;3.80;;;;;;;-128.00;-1.00;-1.00;105600;1251;1003673;-73
2023/05/15 08:49:59;;;;;;;3.30;3.00;;;;;;;-128.00;-1.00;-1.00;105750;1251;1003420;-73
2023/05/15 08:52:26;;;;;;;2.90;2.70;;;;;;;-128.00;-1.00;-1.00;105716;1251;1060072;-74
2023/05/15 08:54:53;;;;;;;3.50;3.30;;;;;;;-128.00;-1.00;-1.00;105715;1251;1004377;-73
2023/05/15 08:57:20;;;;;;;3.40;3.10;;;;;;;-128.00;-1.00;-1.00;105719;1251;1004685;-73
2023/05/15 08:59:48;;;;;;;3.10;2.90;;;;;;;-128.00;-1.00;-1.00;105613;1251;1003720;-73
2023/05/15 09:02:14;;;;;;;4.10;3.40;;;;;;;-128.00;-1.00;-1.00;105730;1251;1004747;-73
2023/05/15 09:04:41;;;;;;;3.30;2.50;;;;;;;-128.00;-1.00;-1.00;105689;1251;1003814;-73
2023/05/15 09:07:09;;;;;;;3.10;2.90;;;;;;;-128.00;-1.00;-1.00;105703;1251;1004751;-73
2023/05/15 09:09:36;;;;;;;5.70;4.50;;;;;;;-128.00;-1.00;-1.00;105763;1251;1005027;-73
2023/05/15 09:12:03;;;;;;;4.00;2.90;;;;;;;-128.00;-1.00;-1.00;105752;1251;1004679;-73
2023/05/15 09:14:29;;;;;;;3.90;3.60;;;;;;;-128.00;-1.00;-1.00;105690;1251;1004483;-74
2023/05/15 09:16:56;;;;;;;4.00;2.70;;;;;;;-128.00;-1.00;-1.00;105673;1251;1003645;-73
2023/05/15 09:19:23;;;;;;;4.00;3.00;;;;;;;-128.00;-1.00;-1.00;105690;1251;1004710;-73
2023/05/15 09:21:49;;;;;;;5.50;3.00;;;;;;;-128.00;-1.00;-1.00;105682;1251;1004316;-73
2023/05/15 09:24:22;;;;;;;3.10;2.80;;;;;;;-128.00;-1.00;-1.00;105573;1251;1004942;-74
2023/05/15 09:27:08;;;;;;;3.10;2.50;;;;;;;-128.00;-1.00;-1.00;105664;1251;1055754;-74
2023/05/15 09:29:36;;;;;;;4.10;2.50;;;;;;;-128.00;-1.00;-1.00;105680;1251;1058388;-73
2023/05/15 09:32:06;;;;;;;4.10;1.90;;;;;;;-128.00;-1.00;-1.00;105652;1251;1046553;-74
2023/05/15 09:34:34;;;;;;;5.30;2.70;;;;;;;-128.00;-1.00;-1.00;105692;1251;1047250;-73
2023/05/15 09:37:05;;;;;;;3.60;3.20;;;;;;;-128.00;-1.00;-1.00;105662;1251;1062624;-73
2023/05/15 09:39:33;;;;;;;3.50;3.20;;;;;;;-128.00;-1.00;-1.00;105735;1251;1056492;-72
2023/05/15 09:42:10;;;;;;;3.00;2.80;;;;;;;-128.00;-1.00;-1.00;105683;1251;1004958;-72
2023/05/15 09:44:44;;;;;;;3.20;3.00;;;;;;;-128.00;-1.00;-1.00;105735;1251;1045801;-72
2023/05/15 09:47:12;;;;;;;3.10;2.90;;;;;;;-128.00;-1.00;-1.00;105544;1251;1049597;-72
2023/05/15 09:49:42;;;;;;;3.70;3.40;;;;;;;-128.00;-1.00;-1.00;105698;1251;1004784;-72
2023/05/15 09:52:09;;;;;;;3.40;3.10;;;;;;;-128.00;-1.00;-1.00;105705;1251;1056081;-72
2023/05/15 09:54:37;;;;;;;3.40;3.20;;;;;;;-128.00;-1.00;-1.00;105697;1251;1003984;-72
2023/05/15 09:57:11;;;;;;;3.00;2.80;;;;;;;-128.00;-1.00;-1.00;105741;1251;1003306;-72
2023/05/15 09:59:46;;;;;;;3.40;3.20;;;;;;;-128.00;-1.00;-1.00;105742;1251;1047613;-72
2023/05/15 10:02:23;;;;;;;2.90;2.60;;;;;;;-128.00;-1.00;-1.00;105740;1251;1061028;-73
2023/05/15 10:04:55;;;;;;;3.00;2.70;;;;;;;-128.00;-1.00;-1.00;105760;1251;1054591;-72
2023/05/15 10:07:34;;;;;;;3.20;3.00;;;;;;;-128.00;-1.00;-1.00;105631;1251;1059666;-72
2023/05/15 10:10:02;;;;;;;3.20;3.00;;;;;;;-128.00;-1.00;-1.00;105724;1251;1046838;-72
2023/05/15 10:12:30;;;;;;;3.40;3.10;;;;;;;-128.00;-1.00;-1.00;105666;1251;1047387;-73
2023/05/15 10:14:59;;;;;;;2.90;2.70;;;;;;;-128.00;-1.00;-1.00;105558;1251;1004933;-72
2023/05/15 10:17:27;;;;;;;3.10;2.90;;;;;;;-128.00;-1.00;-1.00;105708;1251;1055002;-73
2023/05/15 10:19:58;;;;;;;3.00;2.70;;;;;;;-128.00;-1.00;-1.00;105757;1251;1005449;-73
2023/05/15 10:22:28;;;;;;;3.00;2.70;;;;;;;-128.00;-1.00;-1.00;105598;1251;1046454;-73
2023/05/15 10:25:13;;;;;;;;;;;;;;;-128.00;-1.00;-1.00;105595;1251;1046255;-73
2023/05/15 10:27:41;;;;;;;3.20;3.00;;;;;;;-128.00;-1.00;-1.00;105708;1251;1062152;-72
2023/05/15 10:30:09;;;;;;;3.40;3.20;;;;;;;-128.00;-1.00;-1.00;105687;1251;1003533;-73
2023/05/15 10:32:36;;;;;;;4.30;3.90;;;;;;;-128.00;-1.00;-1.00;105709;1251;1058862;-73
2023/05/15 10:35:03;;;;;;;4.30;4.00;;;;;;;-128.00;-1.00;-1.00;105705;1251;1003461;-73
2023/05/15 10:37:30;;;;;;;5.20;4.80;;;;;;;-128.00;-1.00;-1.00;105788;1251;1004634;-73
2023/05/15 10:39:57;;;;;;;4.80;4.20;;;;;;;-128.00;-1.00;-1.00;105733;1251;1004095;-73
2023/05/15 10:42:25;;;;;;;5.00;4.40;;;;;;;-128.00;-1.00;-1.00;105702;1251;1004190;-73
2023/05/15 10:44:53;;;;;;;4.60;4.30;;;;;;;-128.00;-1.00;-1.00;105732;1251;1004857;-73
2023/05/15 10:47:19;;;;;;;5.10;4.70;;;;;;;-128.00;-1.00;-1.00;105705;1251;1003369;-73
2023/05/15 10:49:46;;;;;;;5.90;5.40;;;;;;;-128.00;-1.00;-1.00;105685;1251;1005424;-73
2023/05/15 10:52:12;;;;;;;5.40;4.90;;;;;;;-128.00;-1.00;-1.00;105707;1251;1003693;-73
2023/05/15 10:54:39;;;;;;;3.70;3.50;;;;;;;-128.00;-1.00;-1.00;105547;1251;1005215;-73
2023/05/15 10:57:06;;;;;;;4.20;3.60;;;;;;;-128.00;-1.00;-1.00;105699;1251;1005287;-73
2023/05/15 10:59:33;;;;;;;5.20;3.80;;;;;;;-128.00;-1.00;-1.00;105720;1251;1003434;-73
2023/05/15 11:02:20;;;;;;;4.00;3.70;;;;;;;-128.00;-1.00;-1.00;105673;1251;1003220;-73
2023/05/15 11:04:47;;;;;;;3.60;3.40;;;;;;;-128.00;-1.00;-1.00;105661;1251;1062762;-73
2023/05/15 11:07:15;;;;;;;3.80;3.50;;;;;;;-128.00;-1.00;-1.00;105733;1251;1004135;-74
2023/05/15 11:09:41;;;;;;;3.90;3.60;;;;;;;-128.00;-1.00;-1.00;105754;1251;1060405;-74
2023/05/15 11:12:10;;;;;;;3.80;3.50;;;;;;;-128.00;-1.00;-1.00;105721;1251;1003535;-73
2023/05/15 11:14:39;;;;;;;4.30;3.30;;;;;;;-128.00;-1.00;-1.00;105732;1251;1047080;-73
2023/05/15 11:17:11;;;;;;;4.30;4.00;;;;;;;-128.00;-1.00;-1.00;105639;1251;1061646;-73